Terminal Aerodrome Forecast
Issued by NWS

Home | Current Version | Previous Version | Text Only | Print | Product List | Glossary On
Versions: 1 2 3 4 5 6 7 8 9 10 11 12 13 14 15 16 17 18 19
000
FTUS43 KIND 030800 AAA
TAFBMG
TAF AMD
KBMG 030821Z 0308/0406 12008KT P6SM BKN040 OVC080
     FM031200 16009KT P6SM BKN015 OVC040
      TEMPO 0313/0315 6SM -FZRA
     FM031500 18012KT 3SM -RA BR OVC005
     FM032000 22012G20KT 3SM RA BR OVC005
     FM040000 25008KT 3SM -RA BR OVC006
     FM040500 30004KT 4SM -RA BR OVC009
      AMD LTD TO CLD VIS AND WIND TIL 031400=

USA.gov is the U.S. government's official web portal to all federal, state and local government web resources and services.